Time;durP1;ratioP1;P1;durP2;ratioP2;P2;SDS_P1;SDS_P2;PMS_P1;PMS_P2;Temp;Humidity;BMP_temperature;BMP_pressure;BME280_temperature;BME280_humidity;BME280_pressure;Samples;Min_cycle;Max_cycle;Signal;HPM_P1;HPM_P2
2020/12/28 00:00:55;;;;;;;0.20;0.20;;;;;;;6.38;100.00;97043.78;5074898;28;20128;-67
2020/12/28 00:03:39;;;;;;;0.30;0.30;;;;;;;6.34;100.00;97064.50;5075129;28;20063;-67
2020/12/28 00:06:23;;;;;;;5.63;0.40;;;;;;;6.30;100.00;97051.88;5074596;28;20047;-67
2020/12/28 00:09:07;;;;;;;0.75;0.30;;;;;;;6.26;100.00;97045.34;5075810;28;20051;-67
2020/12/28 00:11:57;;;;;;;0.82;0.50;;;;;;;6.24;100.00;97042.88;5074747;28;20086;-67
2020/12/28 00:14:42;;;;;;;0.90;0.60;;;;;;;6.23;100.00;97043.91;5074485;28;20097;-67
2020/12/28 00:17:26;;;;;;;0.40;0.40;;;;;;;6.20;100.00;97046.94;5074790;28;20135;-67
2020/12/28 00:20:11;;;;;;;0.30;0.30;;;;;;;6.20;100.00;97054.88;5075940;28;20580;-66
2020/12/28 00:22:55;;;;;;;0.30;0.30;;;;;;;6.17;100.00;97047.31;5075372;28;20071;-66
2020/12/28 00:25:39;;;;;;;0.30;0.30;;;;;;;6.20;100.00;97039.00;5075176;28;20044;-66
2020/12/28 00:28:23;;;;;;;0.45;0.45;;;;;;;6.17;100.00;97036.72;5075248;28;20507;-67
2020/12/28 00:31:10;;;;;;;2.03;0.52;;;;;;;6.20;100.00;97035.53;5075597;28;20050;-67
2020/12/28 00:33:55;;;;;;;0.40;0.30;;;;;;;6.20;100.00;97033.72;5060179;28;20051;-68
2020/12/28 00:36:39;;;;;;;1.65;0.40;;;;;;;6.16;100.00;97043.03;5075103;28;20047;-68
2020/12/28 00:39:23;;;;;;;0.40;0.40;;;;;;;6.17;100.00;97043.88;5075506;28;20043;-67
2020/12/28 00:42:07;;;;;;;0.80;0.22;;;;;;;6.22;100.00;97038.78;5075157;28;20056;-68
2020/12/28 00:44:51;;;;;;;0.55;0.55;;;;;;;6.20;100.00;97032.88;5075255;28;20098;-67
2020/12/28 00:47:36;;;;;;;0.40;0.40;;;;;;;6.18;100.00;97038.34;5074109;28;20083;-67
2020/12/28 00:50:20;;;;;;;0.40;0.30;;;;;;;6.13;100.00;97027.56;5075256;28;20091;-67
2020/12/28 00:53:04;;;;;;;0.80;0.40;;;;;;;6.14;100.00;97031.84;5075118;28;20075;-68
2020/12/28 00:55:49;;;;;;;0.57;0.38;;;;;;;6.12;100.00;97028.56;5073836;28;20051;-68
2020/12/28 00:58:36;;;;;;;0.30;0.30;;;;;;;6.14;100.00;97029.19;5073987;28;20046;-68
2020/12/28 01:01:20;;;;;;;0.40;0.40;;;;;;;6.13;100.00;97024.91;5073642;28;20102;-68
2020/12/28 01:04:04;;;;;;;0.38;0.38;;;;;;;6.07;100.00;97017.75;5073837;28;20047;-68
2020/12/28 01:06:48;;;;;;;0.40;0.28;;;;;;;6.05;100.00;97035.63;5074551;28;20055;-67
2020/12/28 01:09:32;;;;;;;0.35;0.35;;;;;;;6.02;100.00;97020.19;5074657;28;20047;-67
2020/12/28 01:12:16;;;;;;;2.38;0.60;;;;;;;6.01;100.00;97026.47;5074731;28;20504;-68
2020/12/28 01:15:00;;;;;;;0.35;0.30;;;;;;;5.98;100.00;97018.13;5073449;28;20048;-66
2020/12/28 01:17:44;;;;;;;0.60;0.60;;;;;;;5.96;100.00;97014.84;5074545;28;20128;-67
2020/12/28 01:20:28;;;;;;;0.65;0.50;;;;;;;5.98;100.00;97000.44;5074296;28;20071;-67
2020/12/28 01:23:12;;;;;;;0.50;0.50;;;;;;;5.97;100.00;97006.72;5074245;28;20075;-67
2020/12/28 01:25:56;;;;;;;0.60;0.60;;;;;;;5.98;100.00;97016.31;5073036;28;20094;-66
2020/12/28 01:28:40;;;;;;;0.57;0.40;;;;;;;5.97;100.00;97014.63;5074408;28;20134;-67
2020/12/28 01:31:24;;;;;;;1.25;0.80;;;;;;;5.97;100.00;97024.41;5073399;28;20067;-65
2020/12/28 01:34:08;;;;;;;0.93;0.60;;;;;;;5.97;100.00;97034.97;5074214;28;20495;-67
2020/12/28 01:36:52;;;;;;;0.57;0.57;;;;;;;5.97;100.00;97041.06;5074407;28;20139;-67
2020/12/28 01:39:36;;;;;;;0.70;0.68;;;;;;;5.97;100.00;97049.00;5074152;28;20097;-67
2020/12/28 01:42:20;;;;;;;0.40;0.40;;;;;;;5.96;100.00;97047.38;5073847;28;20135;-67
2020/12/28 01:45:05;;;;;;;0.50;0.40;;;;;;;5.95;100.00;97040.47;5058775;28;20047;-66
2020/12/28 01:47:49;;;;;;;1.23;0.90;;;;;;;5.98;100.00;97040.09;5072981;28;20051;-67
2020/12/28 01:50:33;;;;;;;0.43;0.43;;;;;;;5.98;100.00;97063.88;5073983;28;20047;-67
2020/12/28 01:53:18;;;;;;;0.47;0.47;;;;;;;5.96;100.00;97028.88;5073630;28;20052;-65
2020/12/28 01:56:05;;;;;;;0.70;0.70;;;;;;;5.92;100.00;97032.09;5058510;28;20106;-67
2020/12/28 01:58:49;;;;;;;2.80;0.85;;;;;;;5.91;100.00;97019.88;5072443;28;20048;-67
2020/12/28 02:01:40;;;;;;;0.73;0.47;;;;;;;5.91;100.00;97015.44;5072782;28;20133;-65
2020/12/28 02:04:24;;;;;;;0.40;0.40;;;;;;;5.91;100.00;97009.31;5073678;28;20059;-65
2020/12/28 02:07:09;;;;;;;0.63;0.55;;;;;;;5.88;100.00;97020.28;5073361;28;20508;-67
2020/12/28 02:09:54;;;;;;;0.30;0.30;;;;;;;5.91;100.00;97006.66;5072338;28;20170;-67
2020/12/28 02:12:38;;;;;;;0.68;0.50;;;;;;;5.92;100.00;97011.78;5073584;28;20051;-65
2020/12/28 02:15:22;;;;;;;0.65;0.43;;;;;;;5.90;100.00;97003.22;5058224;28;20097;-66
2020/12/28 02:18:06;;;;;;;0.93;0.50;;;;;;;5.89;100.00;97006.88;5073202;28;20051;-65
2020/12/28 02:20:51;;;;;;;0.82;0.50;;;;;;;5.91;100.00;97010.16;5073152;28;20102;-67
2020/12/28 02:23:35;;;;;;;0.35;0.32;;;;;;;5.91;100.00;97007.50;5072355;28;20059;-65
2020/12/28 02:26:18;;;;;;;0.88;0.60;;;;;;;5.90;100.00;97008.50;5072895;28;20051;-67
2020/12/28 02:29:02;;;;;;;0.77;0.60;;;;;;;5.90;100.00;97003.22;5072189;28;20047;-68
2020/12/28 02:31:46;;;;;;;0.57;0.50;;;;;;;5.92;100.00;96993.28;5073178;28;20083;-67
2020/12/28 02:34:30;;;;;;;0.40;0.40;;;;;;;5.92;100.00;96993.28;5071867;28;20432;-67
2020/12/28 02:37:14;;;;;;;1.35;0.60;;;;;;;5.91;100.00;96994.28;5073347;28;20040;-67
2020/12/28 02:39:58;;;;;;;0.80;0.70;;;;;;;5.90;100.00;96990.00;5071867;28;20090;-67
2020/12/28 02:42:43;;;;;;;1.58;0.40;;;;;;;5.90;100.00;96982.06;5071948;28;20046;-67
2020/12/28 02:45:27;;;;;;;0.80;0.40;;;;;;;5.89;100.00;96975.16;5072790;28;20046;-67
2020/12/28 02:48:11;;;;;;;1.00;0.68;;;;;;;5.87;100.00;96982.44;5072900;28;20043;-67
2020/12/28 02:50:55;;;;;;;0.85;0.50;;;;;;;5.88;100.00;96984.09;5072843;28;20085;-67
2020/12/28 02:53:39;;;;;;;0.40;0.40;;;;;;;5.90;100.00;96976.78;5072565;28;20051;-68
2020/12/28 02:56:23;;;;;;;0.40;0.40;;;;;;;5.89;100.00;96980.44;5071659;28;20396;-68
2020/12/28 02:59:07;;;;;;;1.30;0.80;;;;;;;5.89;100.00;96974.34;5071428;28;20052;-67
2020/12/28 03:01:51;;;;;;;0.85;0.40;;;;;;;5.90;100.00;96982.06;5072661;28;20143;-68
2020/12/28 03:04:35;;;;;;;1.92;0.57;;;;;;;5.90;100.00;96976.78;5072930;28;20051;-67
2020/12/28 03:07:19;;;;;;;0.80;0.60;;;;;;;5.90;100.00;96963.56;5072698;28;20182;-67
2020/12/28 03:10:03;;;;;;;0.65;0.60;;;;;;;5.90;100.00;96960.94;5072914;28;20568;-68
2020/12/28 03:12:47;;;;;;;1.52;0.50;;;;;;;5.90;100.00;96954.81;5072321;28;20048;-66
2020/12/28 03:15:32;;;;;;;1.00;0.73;;;;;;;5.89;100.00;96967.22;5072458;28;20547;-68
2020/12/28 03:18:16;;;;;;;0.50;0.50;;;;;;;5.87;100.00;96993.00;5057330;28;20535;-68
2020/12/28 03:20:59;;;;;;;2.85;0.80;;;;;;;5.88;100.00;96984.09;5071363;28;20052;-67
2020/12/28 03:23:43;;;;;;;1.83;0.70;;;;;;;5.86;100.00;96967.59;5072810;28;20039;-67
2020/12/28 03:26:27;;;;;;;0.60;0.50;;;;;;;5.87;100.00;96982.44;5071083;28;20542;-66
2020/12/28 03:29:11;;;;;;;0.80;0.80;;;;;;;5.88;100.00;96984.09;5071213;28;20052;-67
2020/12/28 03:31:55;;;;;;;0.63;0.63;;;;;;;5.88;100.00;96986.75;5072652;28;20093;-68
2020/12/28 03:34:39;;;;;;;1.63;0.82;;;;;;;5.88;100.00;96989.38;5071426;28;20044;-67
2020/12/28 03:37:22;;;;;;;1.00;0.90;;;;;;;5.85;100.00;96981.81;5072174;28;20093;-68
2020/12/28 03:40:07;;;;;;;2.17;0.70;;;;;;;5.85;100.00;96984.47;5071271;28;20189;-67
2020/12/28 03:42:51;;;;;;;0.65;0.50;;;;;;;5.86;100.00;96991.38;5072151;28;20047;-67
2020/12/28 03:45:35;;;;;;;1.42;0.70;;;;;;;5.86;100.00;96970.25;5072129;28;20523;-67
2020/12/28 03:48:18;;;;;;;2.28;0.90;;;;;;;5.83;100.00;96964.56;5072311;28;20424;-67
2020/12/28 03:51:02;;;;;;;1.10;0.90;;;;;;;5.84;100.00;96943.19;5072748;28;20083;-67
2020/12/28 03:53:46;;;;;;;0.60;0.60;;;;;;;5.83;100.00;96960.06;5071983;28;20058;-67
2020/12/28 03:56:30;;;;;;;2.72;0.95;;;;;;;5.83;100.00;96952.13;5072038;28;20102;-67
2020/12/28 03:59:14;;;;;;;0.70;0.70;;;;;;;5.80;100.00;96944.59;5071945;28;20546;-67
2020/12/28 04:01:58;;;;;;;1.38;0.73;;;;;;;5.81;100.00;96940.94;5070862;28;20047;-65
2020/12/28 04:04:42;;;;;;;0.93;0.60;;;;;;;5.79;100.00;96948.25;5070995;28;20098;-67
2020/12/28 04:07:26;;;;;;;0.68;0.68;;;;;;;5.79;100.00;96937.69;5072437;28;20054;-67
2020/12/28 04:10:10;;;;;;;1.50;0.70;;;;;;;5.80;100.00;96928.75;5071980;28;20487;-67
2020/12/28 04:12:54;;;;;;;0.80;0.80;;;;;;;5.79;100.00;96921.84;5072063;28;20054;-67
2020/12/28 04:15:38;;;;;;;1.60;0.75;;;;;;;5.78;100.00;96930.75;5071710;28;20528;-66
2020/12/28 04:18:23;;;;;;;1.83;0.70;;;;;;;5.79;100.00;96934.22;5071759;28;20059;-68
2020/12/28 04:21:07;;;;;;;0.95;0.77;;;;;;;5.78;100.00;96949.25;5042839;28;20273;-67
2020/12/28 04:23:51;;;;;;;1.20;0.70;;;;;;;5.75;100.00;96960.19;5072297;28;20164;-68
2020/12/28 04:26:35;;;;;;;0.98;0.88;;;;;;;5.75;100.00;96972.59;5074132;28;20047;-67
2020/12/28 04:29:19;;;;;;;0.88;0.68;;;;;;;5.75;100.00;96962.81;5074196;28;20117;-67
2020/12/28 04:32:04;;;;;;;1.98;0.90;;;;;;;5.70;100.00;96965.25;5075423;28;20413;-65
2020/12/28 04:34:48;;;;;;;1.83;1.00;;;;;;;5.65;100.00;96951.78;5074327;28;20044;-67
2020/12/28 04:37:32;;;;;;;1.05;0.95;;;;;;;5.63;100.00;96947.72;5075415;28;20043;-68
2020/12/28 04:40:16;;;;;;;1.02;0.70;;;;;;;5.60;100.00;96929.59;5074214;28;20181;-68
2020/12/28 04:43:01;;;;;;;1.13;0.90;;;;;;;5.59;100.00;96914.75;5074072;28;20186;-67
2020/12/28 04:45:45;;;;;;;1.00;0.93;;;;;;;5.60;100.00;96911.09;5073970;28;20090;-67
2020/12/28 04:48:32;;;;;;;0.77;0.77;;;;;;;5.73;100.00;96905.91;5074127;28;20043;-67
2020/12/28 04:51:17;;;;;;;0.80;0.80;;;;;;;5.75;100.00;96915.25;5074016;28;20068;-67
2020/12/28 04:54:00;;;;;;;1.13;0.70;;;;;;;5.74;100.00;96923.41;5074872;28;20047;-67
2020/12/28 04:56:45;;;;;;;1.10;0.77;;;;;;;5.68;100.00;96906.50;5073797;28;20508;-67
2020/12/28 04:59:29;;;;;;;0.90;0.80;;;;;;;5.62;100.00;96904.63;5075001;28;20047;-67
2020/12/28 05:02:13;;;;;;;3.35;0.95;;;;;;;5.60;100.00;96896.09;5059720;28;20055;-68
2020/12/28 05:05:07;;;;;;;3.35;0.90;;;;;;;5.52;100.00;96893.59;5075114;28;20141;-68
2020/12/28 05:07:51;;;;;;;;;;;;;;;5.53;100.00;96905.78;5074278;28;20078;-66
2020/12/28 05:10:36;;;;;;;1.57;1.00;;;;;;;5.56;100.00;96905.38;5074062;28;20057;-67
2020/12/28 05:13:20;;;;;;;2.10;0.90;;;;;;;5.52;100.00;96916.56;5074600;28;20052;-68
2020/12/28 05:16:04;;;;;;;1.55;0.95;;;;;;;5.46;100.00;96915.47;5074517;28;20098;-67
2020/12/28 05:18:52;;;;;;;1.70;0.90;;;;;;;5.45;100.00;96902.50;5074451;28;20043;-65
2020/12/28 05:21:36;;;;;;;2.42;0.88;;;;;;;5.43;100.00;96900.03;5074642;28;20470;-68
2020/12/28 05:24:20;;;;;;;4.15;1.33;;;;;;;5.43;100.00;96894.75;5073479;28;20405;-66
2020/12/28 05:27:05;;;;;;;1.40;1.00;;;;;;;5.44;100.00;96891.09;5094120;22;20062;-66
2020/12/28 05:29:50;;;;;;;1.52;1.10;;;;;;;5.48;100.00;96896.81;5074217;28;20047;-68
2020/12/28 05:32:34;;;;;;;1.17;0.90;;;;;;;5.43;100.00;96889.47;5073108;28;20083;-68
2020/12/28 05:35:18;;;;;;;1.08;0.98;;;;;;;5.40;100.00;96881.94;5058783;28;20079;-68
2020/12/28 05:38:02;;;;;;;1.17;1.05;;;;;;;5.38;100.00;96880.50;5074039;28;20066;-68
2020/12/28 05:40:47;;;;;;;1.38;0.95;;;;;;;5.36;100.00;96891.22;5073106;28;20077;-68
2020/12/28 05:43:32;;;;;;;2.38;1.05;;;;;;;5.32;100.00;96897.94;5074120;28;20606;-68
2020/12/28 05:46:23;;;;;;;1.92;1.25;;;;;;;5.33;100.00;96899.56;5074072;28;20047;-68
2020/12/28 05:49:07;;;;;;;2.33;1.25;;;;;;;5.42;100.00;96898.41;5073909;28;20051;-68
2020/12/28 05:51:57;;;;;;;1.67;1.13;;;;;;;5.41;100.00;96894.13;5072978;28;20043;-67
2020/12/28 05:54:41;;;;;;;2.83;1.00;;;;;;;5.50;100.00;96902.72;5072467;28;20043;-68
2020/12/28 05:57:25;;;;;;;3.28;1.20;;;;;;;5.46;100.00;96897.00;5073844;28;20089;-68
2020/12/28 06:00:09;;;;;;;2.42;1.27;;;;;;;5.41;100.00;96907.34;5073789;28;20052;-68
2020/12/28 06:02:53;;;;;;;1.00;0.90;;;;;;;5.38;100.00;96902.44;5072494;28;20044;-68
2020/12/28 06:05:37;;;;;;;;;;;;;;;5.37;100.00;96910.56;5073990;28;20039;-68
2020/12/28 06:08:22;;;;;;;2.78;0.90;;;;;;;5.40;100.00;96908.34;5073380;28;19958;-68
2020/12/28 06:11:06;;;;;;;1.25;1.10;;;;;;;5.37;100.00;96911.38;5072549;28;20058;-68
2020/12/28 06:13:50;;;;;;;1.83;0.80;;;;;;;5.48;100.00;96907.38;5072824;28;20047;-68
2020/12/28 06:16:34;;;;;;;0.82;0.82;;;;;;;5.48;100.00;96902.09;5073415;28;20130;-68
2020/12/28 06:19:23;;;;;;;2.05;1.00;;;;;;;5.50;100.00;96900.06;5073538;28;20056;-68
2020/12/28 06:22:23;;;;;;;1.45;0.73;;;;;;;5.54;100.00;96906.63;5072195;28;20091;-68
2020/12/28 06:25:17;;;;;;;0.93;0.75;;;;;;;5.46;100.00;96898.84;5073261;28;20452;-68
2020/12/28 06:28:01;;;;;;;1.15;0.80;;;;;;;5.50;100.00;96906.19;5071904;28;20519;-68
2020/12/28 06:30:45;;;;;;;2.15;0.90;;;;;;;5.43;100.00;96907.16;5073355;28;20058;-68
2020/12/28 06:33:29;;;;;;;1.70;1.00;;;;;;;5.39;100.00;96909.38;5072101;28;20059;-68
2020/12/28 06:36:15;;;;;;;1.40;1.10;;;;;;;5.42;100.00;96924.81;5073161;28;20499;-68
2020/12/28 06:39:00;;;;;;;1.20;1.00;;;;;;;5.30;100.00;96915.78;5073493;28;20058;-68
2020/12/28 06:41:44;;;;;;;1.20;1.00;;;;;;;5.28;100.00;96923.09;5072872;28;20089;-68
2020/12/28 06:44:28;;;;;;;1.48;1.00;;;;;;;5.37;100.00;96924.59;5073336;28;20463;-68
2020/12/28 06:47:20;;;;;;;0.85;0.85;;;;;;;5.30;100.00;96910.50;5071150;28;20052;-68
2020/12/28 06:50:04;;;;;;;1.42;1.08;;;;;;;5.32;100.00;96918.25;5072982;28;20129;-68
2020/12/28 06:52:52;;;;;;;1.70;1.23;;;;;;;5.39;100.00;96919.09;5072981;28;20056;-68
2020/12/28 06:55:36;;;;;;;1.60;0.95;;;;;;;5.30;100.00;96918.44;5071758;28;20519;-67
2020/12/28 06:58:20;;;;;;;2.60;0.93;;;;;;;5.43;100.00;96926.44;5071880;28;20047;-68
2020/12/28 07:01:05;;;;;;;2.05;1.35;;;;;;;5.40;100.00;96926.84;5057792;28;20511;-68
2020/12/28 07:03:49;;;;;;;1.85;1.05;;;;;;;5.45;100.00;96936.81;5071659;28;20067;-68
2020/12/28 07:06:33;;;;;;;1.95;1.20;;;;;;;5.45;100.00;96932.34;5071510;28;20039;-68
2020/12/28 07:09:17;;;;;;;0.80;0.73;;;;;;;5.51;100.00;96934.22;5071609;28;20539;-68
2020/12/28 07:12:09;;;;;;;1.67;0.88;;;;;;;5.54;100.00;96930.38;5057939;28;20468;-68
2020/12/28 07:15:01;;;;;;;1.70;1.40;;;;;;;5.54;100.00;96931.19;5071605;28;20098;-68
2020/12/28 07:17:46;;;;;;;1.65;0.95;;;;;;;5.60;100.00;96933.06;5072515;28;20047;-67
2020/12/28 07:20:29;;;;;;;1.60;0.80;;;;;;;5.59;100.00;96941.19;5072767;28;20087;-68
2020/12/28 07:23:14;;;;;;;1.85;1.00;;;;;;;5.59;100.00;96936.72;5071577;28;20116;-67
2020/12/28 07:26:08;;;;;;;2.35;1.00;;;;;;;5.57;100.00;96933.47;5072370;28;20059;-68
2020/12/28 07:28:52;;;;;;;3.45;1.20;;;;;;;5.56;100.00;96934.44;5072419;28;20110;-67
2020/12/28 07:31:36;;;;;;;2.75;0.98;;;;;;;5.58;100.00;96929.81;5071548;28;20094;-68
2020/12/28 07:34:20;;;;;;;1.38;0.95;;;;;;;5.57;100.00;96928.19;5072526;28;20200;-68
2020/12/28 07:37:04;;;;;;;1.40;0.95;;;;;;;5.59;100.00;96917.41;5072563;28;20417;-68
2020/12/28 07:39:49;;;;;;;2.03;1.10;;;;;;;5.65;100.00;96919.28;5072565;28;20059;-68
2020/12/28 07:42:34;;;;;;;2.10;0.93;;;;;;;5.55;100.00;96914.31;5071525;28;20405;-68
2020/12/28 07:45:19;;;;;;;3.10;1.00;;;;;;;5.54;100.00;96906.63;5072232;28;20484;-68
2020/12/28 07:48:06;;;;;;;1.35;1.20;;;;;;;5.54;100.00;96906.63;5072174;28;20146;-68
2020/12/28 07:50:52;;;;;;;1.98;1.52;;;;;;;5.56;100.00;96896.66;5071191;28;20189;-68
2020/12/28 07:53:40;;;;;;;2.08;1.40;;;;;;;5.56;100.00;96892.19;5071358;28;20102;-68
2020/12/28 07:56:41;;;;;;;4.22;2.33;;;;;;;5.58;100.00;96892.81;5071064;28;20496;-68
2020/12/28 07:59:42;;;;;;;2.60;1.70;;;;;;;5.61;100.00;96902.16;5073698;28;20047;-67
2020/12/28 08:02:36;;;;;;;1.50;1.40;;;;;;;5.62;100.00;96903.78;5075081;28;20127;-68
2020/12/28 08:05:21;;;;;;;5.47;1.40;;;;;;;5.70;100.00;96901.84;5075102;28;20455;-68
2020/12/28 08:08:05;;;;;;;5.22;1.60;;;;;;;5.75;100.00;96898.59;5060580;28;20545;-68
2020/12/28 08:10:51;;;;;;;2.30;1.40;;;;;;;5.80;100.00;96897.03;5074749;28;20511;-68
2020/12/28 08:13:36;;;;;;;2.72;2.10;;;;;;;5.82;100.00;96900.28;5074658;28;20046;-68
2020/12/28 08:16:21;;;;;;;2.95;2.65;;;;;;;5.84;100.00;96900.91;5074704;28;20404;-68
2020/12/28 08:19:05;;;;;;;4.63;3.10;;;;;;;5.90;100.00;96894.84;5075867;28;20052;-67
2020/12/28 08:21:48;;;;;;;5.07;4.57;;;;;;;5.93;100.00;96893.66;5075909;28;20142;-67
2020/12/28 08:24:32;;;;;;;7.80;3.80;;;;;;;5.94;100.00;96890.00;5075467;28;20060;-67
2020/12/28 08:27:17;;;;;;;6.78;4.05;;;;;;;5.99;100.00;96888.41;5074275;28;20054;-68
2020/12/28 08:30:05;;;;;;;5.65;3.75;;;;;;;6.06;100.00;96881.28;5074366;28;20058;-67
2020/12/28 08:32:50;;;;;;;7.65;2.65;;;;;;;6.12;100.00;96880.50;5074553;28;20427;-67
2020/12/28 08:35:34;;;;;;;6.68;2.30;;;;;;;6.11;100.00;96883.34;5074249;28;20056;-67
2020/12/28 08:38:28;;;;;;;;;;;;;;;6.17;100.00;96880.72;5074856;28;20078;-67
2020/12/28 08:41:15;;;;;;;3.97;2.03;;;;;;;6.13;100.00;96868.91;5074261;28;19923;-68
2020/12/28 08:43:59;;;;;;;2.40;1.70;;;;;;;6.15;100.00;96874.81;5075426;28;20055;-68
2020/12/28 08:46:44;;;;;;;1.75;1.60;;;;;;;6.04;100.00;96883.31;5074274;28;20106;-67
2020/12/28 08:49:29;;;;;;;3.60;1.90;;;;;;;6.01;100.00;96888.19;5074994;28;20082;-67
2020/12/28 08:52:16;;;;;;;4.00;2.10;;;;;;;5.99;100.00;96885.75;5073998;28;20503;-67
2020/12/28 08:55:00;;;;;;;3.15;2.10;;;;;;;5.98;100.00;96896.50;5074907;28;20051;-68
2020/12/28 08:57:55;;;;;;;5.38;3.42;;;;;;;6.00;100.00;96890.03;5074795;28;20047;-67
2020/12/28 09:00:40;;;;;;;4.65;2.95;;;;;;;6.03;100.00;96894.06;5059845;28;20098;-67
2020/12/28 09:03:24;;;;;;;5.32;3.17;;;;;;;6.01;100.00;96899.59;5073794;28;20079;-68
2020/12/28 09:06:08;;;;;;;5.65;3.90;;;;;;;6.02;100.00;96889.81;5074925;28;20518;-68
2020/12/28 09:08:52;;;;;;;3.42;2.53;;;;;;;6.02;100.00;96880.06;5073194;28;20047;-67
2020/12/28 09:11:36;;;;;;;8.63;7.72;;;;;;;6.00;100.00;96884.75;5059438;28;20519;-68
2020/12/28 09:14:22;;;;;;;14.35;10.43;;;;;;;6.04;100.00;96891.25;5074812;28;20048;-67
2020/12/28 09:17:06;;;;;;;10.90;7.68;;;;;;;6.07;100.00;96885.56;5059449;28;20048;-67
2020/12/28 09:19:50;;;;;;;9.30;6.53;;;;;;;6.12;100.00;96890.25;5074484;28;20051;-68
2020/12/28 09:22:34;;;;;;;9.85;6.68;;;;;;;6.18;100.00;96878.91;5059433;28;20048;-68
2020/12/28 09:25:18;;;;;;;10.00;7.65;;;;;;;6.21;100.00;96883.78;5073421;28;20051;-68
2020/12/28 09:28:02;;;;;;;16.27;11.60;;;;;;;6.29;100.00;96879.16;5073152;28;20067;-68
2020/12/28 09:30:46;;;;;;;9.10;6.80;;;;;;;6.37;100.00;96886.09;5073290;28;20051;-68
2020/12/28 09:33:32;;;;;;;8.75;5.95;;;;;;;6.47;100.00;96882.03;5074267;28;20051;-67
2020/12/28 09:36:20;;;;;;;4.70;3.00;;;;;;;6.53;100.00;96888.34;5072902;28;20075;-68
2020/12/28 09:39:04;;;;;;;7.25;5.00;;;;;;;6.58;100.00;96878.00;5073280;28;20059;-67
2020/12/28 09:41:48;;;;;;;13.82;10.82;;;;;;;6.57;100.00;96881.66;5073214;28;20137;-67
2020/12/28 09:44:32;;;;;;;12.25;10.40;;;;;;;6.55;100.00;96883.69;5074042;28;20101;-67
2020/12/28 09:47:16;;;;;;;7.53;5.15;;;;;;;6.57;100.00;96887.75;5073997;28;20582;-67
2020/12/28 09:49:59;;;;;;;5.25;3.20;;;;;;;6.61;100.00;96886.34;5073114;28;20051;-66
2020/12/28 09:52:43;;;;;;;6.45;4.85;;;;;;;6.65;100.00;96879.63;5074053;28;20193;-67
2020/12/28 09:55:27;;;;;;;56.58;38.22;;;;;;;6.66;100.00;96877.81;5072802;28;20050;-67
2020/12/28 09:58:11;;;;;;;48.60;32.78;;;;;;;6.66;100.00;96885.75;5073598;28;20083;-68
2020/12/28 10:00:55;;;;;;;23.95;16.65;;;;;;;6.69;100.00;96872.09;5073804;28;20043;-68
2020/12/28 10:03:40;;;;;;;20.65;13.48;;;;;;;6.66;100.00;96873.31;5072487;28;20147;-67
2020/12/28 10:06:31;;;;;;;40.00;24.25;;;;;;;6.66;100.00;96865.38;5072460;28;20047;-68
2020/12/28 10:09:14;;;;;;;15.27;9.13;;;;;;;6.67;100.00;96867.00;5073730;28;20044;-68
2020/12/28 10:11:58;;;;;;;13.40;9.57;;;;;;;6.66;100.00;96859.28;5072356;28;20098;-68
2020/12/28 10:14:42;;;;;;;37.00;19.40;;;;;;;6.73;100.00;96860.91;5073585;28;20121;-67
2020/12/28 10:17:26;;;;;;;80.80;48.45;;;;;;;6.83;100.00;96860.50;5072175;28;20098;-68
2020/12/28 10:20:11;;;;;;;34.03;24.38;;;;;;;6.86;100.00;96857.47;5072172;28;20048;-67
2020/12/28 10:22:56;;;;;;;11.70;10.48;;;;;;;6.96;100.00;96853.38;5073055;28;20570;-67
2020/12/28 10:25:40;;;;;;;18.45;15.07;;;;;;;7.13;100.00;96849.31;5072388;28;20043;-67
2020/12/28 10:28:24;;;;;;;9.02;8.13;;;;;;;7.18;100.00;96841.56;5073163;28;20471;-67
2020/12/28 10:31:09;;;;;;;4.70;3.50;;;;;;;7.22;100.00;96842.78;5072381;28;20056;-68
2020/12/28 10:33:53;;;;;;;4.72;2.00;;;;;;;7.21;100.00;96846.47;5071959;28;20051;-68
2020/12/28 10:36:37;;;;;;;3.75;2.55;;;;;;;7.20;100.00;96855.41;5072129;28;20090;-68
2020/12/28 10:39:21;;;;;;;11.10;7.22;;;;;;;7.21;100.00;96851.75;5072147;28;20097;-68
2020/12/28 10:42:05;;;;;;;7.53;6.72;;;;;;;7.18;100.00;96841.56;5073199;28;20044;-68
2020/12/28 10:44:49;;;;;;;4.97;4.38;;;;;;;7.18;100.00;96841.56;5073158;28;20044;-68
2020/12/28 10:47:33;;;;;;;6.28;5.65;;;;;;;7.20;100.00;96828.13;5057963;28;20417;-68
2020/12/28 10:50:17;;;;;;;7.28;4.78;;;;;;;7.25;100.00;96826.47;5072932;28;20416;-68
2020/12/28 10:53:02;;;;;;;2.83;2.42;;;;;;;7.27;100.00;96823.63;5073361;28;20047;-67
2020/12/28 10:55:46;;;;;;;3.05;2.30;;;;;;;7.28;100.00;96823.41;5072723;28;20102;-67
2020/12/28 10:58:30;;;;;;;19.92;13.57;;;;;;;7.27;100.00;96831.59;5072808;28;20078;-68
2020/12/28 11:01:14;;;;;;;10.10;8.45;;;;;;;7.27;100.00;96823.63;5071883;28;20086;-68
2020/12/28 11:03:58;;;;;;;5.07;4.40;;;;;;;7.28;100.00;96826.06;5071638;28;20109;-68
2020/12/28 11:06:42;;;;;;;7.55;5.10;;;;;;;7.25;100.00;96818.53;5072760;28;20043;-68
2020/12/28 11:09:26;;;;;;;7.70;5.78;;;;;;;7.18;100.00;96822.22;5072655;28;20051;-67
2020/12/28 11:12:10;;;;;;;12.85;9.23;;;;;;;7.20;100.00;96826.25;5072565;28;20178;-68
2020/12/28 11:14:53;;;;;;;8.93;6.65;;;;;;;7.22;100.00;96816.31;5072795;28;20110;-68
2020/12/28 11:17:38;;;;;;;;;;;;;;;7.23;100.00;96823.22;5072012;28;20131;-68
2020/12/28 11:20:22;;;;;;;5.85;4.28;;;;;;;7.30;100.00;96817.91;5072573;28;20007;-68
2020/12/28 11:23:05;;;;;;;5.00;3.10;;;;;;;7.23;100.00;96825.88;5071683;28;20624;-68
2020/12/28 11:25:51;;;;;;;2.67;2.05;;;;;;;7.14;100.00;96824.47;5072453;28;20186;-67
2020/12/28 11:28:35;;;;;;;2.58;2.10;;;;;;;7.06;100.00;96827.31;5072681;28;20055;-68
2020/12/28 11:31:19;;;;;;;3.55;2.40;;;;;;;6.95;100.00;96835.88;5072656;28;20056;-67
2020/12/28 11:34:03;;;;;;;2.50;2.30;;;;;;;6.78;100.00;96832.00;5076255;28;20118;-67
2020/12/28 11:36:47;;;;;;;4.30;2.47;;;;;;;6.71;100.00;96849.72;5076607;28;20178;-67
2020/12/28 11:39:31;;;;;;;3.90;2.85;;;;;;;6.65;100.00;96847.88;5076627;28;20492;-67
2020/12/28 11:42:15;;;;;;;2.83;2.00;;;;;;;6.53;100.00;96856.59;5076901;28;20078;-68
2020/12/28 11:44:59;;;;;;;2.95;2.45;;;;;;;6.37;100.00;96851.69;5075435;28;20063;-67
2020/12/28 11:47:43;;;;;;;2.85;2.47;;;;;;;6.30;100.00;96854.34;5075508;28;20055;-67
2020/12/28 11:50:27;;;;;;;2.60;2.10;;;;;;;6.25;100.00;96858.59;5076464;28;20055;-68
2020/12/28 11:53:12;;;;;;;3.30;2.40;;;;;;;6.17;100.00;96874.63;5076149;28;20091;-67
2020/12/28 11:56:11;;;;;;;1.15;0.82;;;;;;;5.79;100.00;96903.34;5076190;28;20128;-64
2020/12/28 11:58:55;;;;;;;1.65;0.80;;;;;;;5.51;100.00;96899.88;5076055;28;20055;-67
2020/12/28 12:01:39;;;;;;;0.88;0.50;;;;;;;5.25;100.00;96890.97;5075143;28;20051;-67
2020/12/28 12:04:48;;;;;;;0.30;0.30;;;;;;;4.78;100.00;96913.72;5076172;28;20067;-68
2020/12/28 12:07:27;;;;;;;0.32;0.30;;;;;;;4.50;100.00;96916.31;5076052;28;20528;-69
2020/12/28 12:10:11;;;;;;;0.47;0.40;;;;;;;4.21;100.00;96932.19;5076694;28;20174;-69
2020/12/28 12:12:55;;;;;;;7.32;0.80;;;;;;;4.15;100.00;96924.22;5074802;28;20151;-69
2020/12/28 12:15:46;;;;;;;2.15;0.85;;;;;;;4.07;100.00;96919.03;5074540;28;20136;-70
2020/12/28 12:18:30;;;;;;;0.50;0.50;;;;;;;4.01;100.00;96903.97;5074577;28;20127;-69
2020/12/28 12:21:14;;;;;;;1.02;0.80;;;;;;;4.04;100.00;96903.59;5074614;28;20411;-68
2020/12/28 12:23:59;;;;;;;1.15;1.02;;;;;;;4.07;100.00;96906.66;5075782;28;20210;-68
2020/12/28 12:26:43;;;;;;;1.73;1.30;;;;;;;4.16;100.00;96915.31;5075537;28;20075;-69
2020/12/28 12:29:27;;;;;;;0.90;0.90;;;;;;;4.23;100.00;96903.81;5074890;28;20504;-68
2020/12/28 12:32:11;;;;;;;3.30;1.17;;;;;;;4.31;100.00;96902.88;5075441;28;20098;-68
2020/12/28 12:34:55;;;;;;;1.35;1.25;;;;;;;4.45;100.00;96909.94;5075254;28;20051;-68
2020/12/28 12:37:40;;;;;;;1.83;1.30;;;;;;;4.48;100.00;96902.47;5074280;28;20101;-68
2020/12/28 12:40:24;;;;;;;1.75;1.40;;;;;;;4.52;100.00;96893.19;5075260;28;20474;-68
2020/12/28 12:43:09;;;;;;;2.58;1.05;;;;;;;4.58;100.00;96899.53;5075555;28;20070;-68
2020/12/28 12:45:53;;;;;;;2.22;1.10;;;;;;;4.63;100.00;96897.13;5073723;28;20043;-68
2020/12/28 12:48:42;;;;;;;1.75;1.10;;;;;;;4.72;100.00;96886.28;5075117;28;20516;-68
2020/12/28 12:51:26;;;;;;;2.58;0.90;;;;;;;4.78;100.00;96898.69;5074482;28;20124;-69
2020/12/28 12:54:09;;;;;;;1.00;0.90;;;;;;;4.86;100.00;96895.13;5074160;28;20055;-68
2020/12/28 12:56:53;;;;;;;1.52;1.20;;;;;;;4.91;100.00;96888.28;5075050;28;20120;-68